CRL weather

Brussels South Charleroi Airport
Brussels, Hainaut, Belgium

Public forecast

Using degrees Celsius for public forecast. Weather courtesy of forecast.io.

METAR (pilot weather report)

Retrieved 2019/02/15 22:50 UTC (21 minutes ago):

EBCI 152250Z 19007KT CAVOK 09/M00 Q1026 NOSIG

TAF (pilot weather forecast)

Retrieved 2019/02/15 18:27 UTC (5 hours ago):

TAF EBCI 151710Z 1518/1624 19006KT CAVOK